sensor_id;sensor_type;location;lat;lon;timestamp;P1;durP1;ratioP1;P2;durP2;ratioP2
64686;SDS011;51113;53.646;-113.674;2022-09-03T00:02:34;12.73;;;2.42;;
64686;SDS011;51113;53.646;-113.674;2022-09-03T00:10:38;9.73;;;1.88;;
64686;SDS011;51113;53.646;-113.674;2022-09-03T00:13:15;9.20;;;1.70;;
64686;SDS011;51113;53.646;-113.674;2022-09-03T00:15:54;16.00;;;1.92;;
64686;SDS011;51113;53.646;-113.674;2022-09-03T00:21:01;8.45;;;1.80;;
64686;SDS011;51113;53.646;-113.674;2022-09-03T00:23:36;12.27;;;1.52;;
64686;SDS011;51113;53.646;-113.674;2022-09-03T00:28:50;9.23;;;1.73;;
64686;SDS011;51113;53.646;-113.674;2022-09-03T00:31:31;6.70;;;1.80;;
64686;SDS011;51113;53.646;-113.674;2022-09-03T00:34:52;7.10;;;1.65;;
64686;SDS011;51113;53.646;-113.674;2022-09-03T00:37:01;12.35;;;1.70;;
64686;SDS011;51113;53.646;-113.674;2022-09-03T00:39:31;7.40;;;1.48;;
64686;SDS011;51113;53.646;-113.674;2022-09-03T00:42:10;7.40;;;2.20;;
64686;SDS011;51113;53.646;-113.674;2022-09-03T00:45:02;9.85;;;1.63;;
64686;SDS011;51113;53.646;-113.674;2022-09-03T00:50:32;10.55;;;1.58;;
64686;SDS011;51113;53.646;-113.674;2022-09-03T01:04:38;12.60;;;1.90;;
64686;SDS011;51113;53.646;-113.674;2022-09-03T01:12:55;8.93;;;1.63;;
64686;SDS011;51113;53.646;-113.674;2022-09-03T01:15:44;12.05;;;1.83;;
64686;SDS011;51113;53.646;-113.674;2022-09-03T01:27:09;12.35;;;1.73;;
64686;SDS011;51113;53.646;-113.674;2022-09-03T01:47:14;9.57;;;1.42;;
64686;SDS011;51113;53.646;-113.674;2022-09-03T01:50:06;12.15;;;1.98;;
64686;SDS011;51113;53.646;-113.674;2022-09-03T01:55:31;10.32;;;1.50;;
64686;SDS011;51113;53.646;-113.674;2022-09-03T01:58:26;18.42;;;1.80;;
64686;SDS011;51113;53.646;-113.674;2022-09-03T02:01:04;12.27;;;1.58;;
64686;SDS011;51113;53.646;-113.674;2022-09-03T02:03:43;9.48;;;1.92;;
64686;SDS011;51113;53.646;-113.674;2022-09-03T02:06:14;11.73;;;1.60;;
64686;SDS011;51113;53.646;-113.674;2022-09-03T02:08:43;8.45;;;1.35;;
64686;SDS011;51113;53.646;-113.674;2022-09-03T02:11:12;12.70;;;1.50;;
64686;SDS011;51113;53.646;-113.674;2022-09-03T02:13:42;14.75;;;1.65;;
64686;SDS011;51113;53.646;-113.674;2022-09-03T02:16:16;6.60;;;1.33;;
64686;SDS011;51113;53.646;-113.674;2022-09-03T02:18:50;15.98;;;1.80;;
64686;SDS011;51113;53.646;-113.674;2022-09-03T02:21:22;17.30;;;2.13;;
64686;SDS011;51113;53.646;-113.674;2022-09-03T02:23:53;12.30;;;1.42;;
64686;SDS011;51113;53.646;-113.674;2022-09-03T02:26:22;5.63;;;1.30;;
64686;SDS011;51113;53.646;-113.674;2022-09-03T02:28:52;12.55;;;2.38;;
64686;SDS011;51113;53.646;-113.674;2022-09-03T02:31:22;10.48;;;1.70;;
64686;SDS011;51113;53.646;-113.674;2022-09-03T02:33:52;9.38;;;1.67;;
64686;SDS011;51113;53.646;-113.674;2022-09-03T02:36:24;8.65;;;1.50;;
64686;SDS011;51113;53.646;-113.674;2022-09-03T02:38:56;11.70;;;1.42;;
64686;SDS011;51113;53.646;-113.674;2022-09-03T02:41:25;6.88;;;1.73;;
64686;SDS011;51113;53.646;-113.674;2022-09-03T02:43:57;11.90;;;1.75;;
64686;SDS011;51113;53.646;-113.674;2022-09-03T02:46:34;9.88;;;1.27;;
64686;SDS011;51113;53.646;-113.674;2022-09-03T02:49:25;10.52;;;1.73;;
64686;SDS011;51113;53.646;-113.674;2022-09-03T02:51:58;13.50;;;2.83;;
64686;SDS011;51113;53.646;-113.674;2022-09-03T02:54:32;9.75;;;1.80;;
64686;SDS011;51113;53.646;-113.674;2022-09-03T02:57:03;13.43;;;1.92;;
64686;SDS011;51113;53.646;-113.674;2022-09-03T02:59:32;20.27;;;2.35;;
64686;SDS011;51113;53.646;-113.674;2022-09-03T03:02:01;18.13;;;1.73;;
64686;SDS011;51113;53.646;-113.674;2022-09-03T03:04:31;15.50;;;2.33;;
64686;SDS011;51113;53.646;-113.674;2022-09-03T03:06:59;12.70;;;1.98;;
64686;SDS011;51113;53.646;-113.674;2022-09-03T03:09:28;11.35;;;1.98;;
64686;SDS011;51113;53.646;-113.674;2022-09-03T03:11:57;17.48;;;2.28;;
64686;SDS011;51113;53.646;-113.674;2022-09-03T03:14:25;8.73;;;2.08;;
64686;SDS011;51113;53.646;-113.674;2022-09-03T03:16:54;17.02;;;1.73;;
64686;SDS011;51113;53.646;-113.674;2022-09-03T03:19:23;12.50;;;1.40;;
64686;SDS011;51113;53.646;-113.674;2022-09-03T03:21:52;10.43;;;1.67;;
64686;SDS011;51113;53.646;-113.674;2022-09-03T03:24:21;12.23;;;1.77;;
64686;SDS011;51113;53.646;-113.674;2022-09-03T03:26:49;16.10;;;1.90;;
64686;SDS011;51113;53.646;-113.674;2022-09-03T03:29:17;18.63;;;2.22;;
64686;SDS011;51113;53.646;-113.674;2022-09-03T03:31:47;9.38;;;2.05;;
64686;SDS011;51113;53.646;-113.674;2022-09-03T03:34:16;14.52;;;1.70;;
64686;SDS011;51113;53.646;-113.674;2022-09-03T03:36:44;8.63;;;1.65;;
64686;SDS011;51113;53.646;-113.674;2022-09-03T03:39:14;12.75;;;2.05;;
64686;SDS011;51113;53.646;-113.674;2022-09-03T03:41:42;12.52;;;2.30;;
64686;SDS011;51113;53.646;-113.674;2022-09-03T03:44:11;27.20;;;1.63;;
64686;SDS011;51113;53.646;-113.674;2022-09-03T03:46:40;16.17;;;1.67;;
64686;SDS011;51113;53.646;-113.674;2022-09-03T03:49:09;19.05;;;1.95;;
64686;SDS011;51113;53.646;-113.674;2022-09-03T03:51:38;14.23;;;1.60;;
64686;SDS011;51113;53.646;-113.674;2022-09-03T03:54:07;12.88;;;1.92;;
64686;SDS011;51113;53.646;-113.674;2022-09-03T03:56:38;18.23;;;1.83;;
64686;SDS011;51113;53.646;-113.674;2022-09-03T03:59:06;10.25;;;1.67;;
64686;SDS011;51113;53.646;-113.674;2022-09-03T04:01:35;7.57;;;1.60;;
64686;SDS011;51113;53.646;-113.674;2022-09-03T04:04:04;14.63;;;1.77;;
64686;SDS011;51113;53.646;-113.674;2022-09-03T04:06:33;10.38;;;1.63;;
64686;SDS011;51113;53.646;-113.674;2022-09-03T04:09:01;17.65;;;1.63;;
64686;SDS011;51113;53.646;-113.674;2022-09-03T04:11:30;10.25;;;1.60;;
64686;SDS011;51113;53.646;-113.674;2022-09-03T04:13:58;10.68;;;1.52;;
64686;SDS011;51113;53.646;-113.674;2022-09-03T04:16:29;10.27;;;1.67;;
64686;SDS011;51113;53.646;-113.674;2022-09-03T04:18:59;6.85;;;1.55;;
64686;SDS011;51113;53.646;-113.674;2022-09-03T04:21:28;12.57;;;1.50;;
64686;SDS011;51113;53.646;-113.674;2022-09-03T04:23:57;13.00;;;1.70;;
64686;SDS011;51113;53.646;-113.674;2022-09-03T04:26:27;4.97;;;1.60;;
64686;SDS011;51113;53.646;-113.674;2022-09-03T04:29:00;8.02;;;1.60;;
64686;SDS011;51113;53.646;-113.674;2022-09-03T04:31:31;15.68;;;2.08;;
64686;SDS011;51113;53.646;-113.674;2022-09-03T04:34:01;12.48;;;1.80;;
64686;SDS011;51113;53.646;-113.674;2022-09-03T04:36:32;9.40;;;1.73;;
64686;SDS011;51113;53.646;-113.674;2022-09-03T04:39:01;8.57;;;1.95;;
64686;SDS011;51113;53.646;-113.674;2022-09-03T04:41:30;14.18;;;1.70;;
64686;SDS011;51113;53.646;-113.674;2022-09-03T04:43:59;9.57;;;1.73;;
64686;SDS011;51113;53.646;-113.674;2022-09-03T04:46:28;12.38;;;2.20;;
64686;SDS011;51113;53.646;-113.674;2022-09-03T04:49:00;10.13;;;2.00;;
64686;SDS011;51113;53.646;-113.674;2022-09-03T04:51:29;18.40;;;1.67;;
64686;SDS011;51113;53.646;-113.674;2022-09-03T04:53:58;9.93;;;1.92;;
64686;SDS011;51113;53.646;-113.674;2022-09-03T04:56:32;7.97;;;2.00;;
64686;SDS011;51113;53.646;-113.674;2022-09-03T04:59:03;8.32;;;2.13;;
64686;SDS011;51113;53.646;-113.674;2022-09-03T05:04:05;15.38;;;1.92;;
64686;SDS011;51113;53.646;-113.674;2022-09-03T05:06:34;23.25;;;2.20;;
64686;SDS011;51113;53.646;-113.674;2022-09-03T05:09:04;7.13;;;1.60;;
64686;SDS011;51113;53.646;-113.674;2022-09-03T05:11:33;8.35;;;1.67;;
64686;SDS011;51113;53.646;-113.674;2022-09-03T05:14:03;13.65;;;1.92;;
64686;SDS011;51113;53.646;-113.674;2022-09-03T05:16:32;18.27;;;2.45;;
64686;SDS011;51113;53.646;-113.674;2022-09-03T05:19:01;17.67;;;2.20;;
64686;SDS011;51113;53.646;-113.674;2022-09-03T05:21:32;8.73;;;2.10;;
64686;SDS011;51113;53.646;-113.674;2022-09-03T05:24:05;12.98;;;2.22;;
64686;SDS011;51113;53.646;-113.674;2022-09-03T05:26:36;12.70;;;2.25;;
64686;SDS011;51113;53.646;-113.674;2022-09-03T05:29:06;22.80;;;2.25;;
64686;SDS011;51113;53.646;-113.674;2022-09-03T05:31:35;20.75;;;2.55;;
64686;SDS011;51113;53.646;-113.674;2022-09-03T05:34:06;9.63;;;1.80;;
64686;SDS011;51113;53.646;-113.674;2022-09-03T05:36:44;16.55;;;2.00;;
64686;SDS011;51113;53.646;-113.674;2022-09-03T05:39:13;18.77;;;1.88;;
64686;SDS011;51113;53.646;-113.674;2022-09-03T05:41:42;9.45;;;2.03;;
64686;SDS011;51113;53.646;-113.674;2022-09-03T05:44:10;21.98;;;2.40;;
64686;SDS011;51113;53.646;-113.674;2022-09-03T05:46:39;13.07;;;2.33;;
64686;SDS011;51113;53.646;-113.674;2022-09-03T05:49:08;22.05;;;2.70;;
64686;SDS011;51113;53.646;-113.674;2022-09-03T05:51:38;21.33;;;2.90;;
64686;SDS011;51113;53.646;-113.674;2022-09-03T05:54:07;18.90;;;2.13;;
64686;SDS011;51113;53.646;-113.674;2022-09-03T05:56:37;26.10;;;2.75;;
64686;SDS011;51113;53.646;-113.674;2022-09-03T05:59:09;19.08;;;2.15;;
64686;SDS011;51113;53.646;-113.674;2022-09-03T06:01:41;19.00;;;3.20;;
64686;SDS011;51113;53.646;-113.674;2022-09-03T06:04:18;35.47;;;2.75;;
64686;SDS011;51113;53.646;-113.674;2022-09-03T06:06:47;20.08;;;2.47;;
64686;SDS011;51113;53.646;-113.674;2022-09-03T06:09:17;19.13;;;2.50;;
64686;SDS011;51113;53.646;-113.674;2022-09-03T06:11:49;13.05;;;2.67;;
64686;SDS011;51113;53.646;-113.674;2022-09-03T06:14:18;23.48;;;2.03;;
64686;SDS011;51113;53.646;-113.674;2022-09-03T06:16:48;14.43;;;2.60;;
64686;SDS011;51113;53.646;-113.674;2022-09-03T06:19:19;24.35;;;2.90;;
64686;SDS011;51113;53.646;-113.674;2022-09-03T06:21:48;26.88;;;3.33;;
64686;SDS011;51113;53.646;-113.674;2022-09-03T06:24:20;17.73;;;2.53;;
64686;SDS011;51113;53.646;-113.674;2022-09-03T06:26:57;13.35;;;2.08;;
64686;SDS011;51113;53.646;-113.674;2022-09-03T06:29:26;17.40;;;2.38;;
64686;SDS011;51113;53.646;-113.674;2022-09-03T06:31:55;25.17;;;2.80;;
64686;SDS011;51113;53.646;-113.674;2022-09-03T06:34:24;17.55;;;2.17;;
64686;SDS011;51113;53.646;-113.674;2022-09-03T06:36:53;12.77;;;2.40;;
64686;SDS011;51113;53.646;-113.674;2022-09-03T06:39:22;17.75;;;2.70;;
64686;SDS011;51113;53.646;-113.674;2022-09-03T06:41:52;14.90;;;2.45;;
64686;SDS011;51113;53.646;-113.674;2022-09-03T06:44:21;15.40;;;2.30;;
64686;SDS011;51113;53.646;-113.674;2022-09-03T06:46:50;21.80;;;2.78;;
64686;SDS011;51113;53.646;-113.674;2022-09-03T06:49:19;25.00;;;3.08;;
64686;SDS011;51113;53.646;-113.674;2022-09-03T06:51:48;19.88;;;2.10;;
64686;SDS011;51113;53.646;-113.674;2022-09-03T06:54:17;11.43;;;2.25;;
64686;SDS011;51113;53.646;-113.674;2022-09-03T06:56:46;12.13;;;2.22;;
64686;SDS011;51113;53.646;-113.674;2022-09-03T06:59:14;26.88;;;2.65;;
64686;SDS011;51113;53.646;-113.674;2022-09-03T07:01:43;19.65;;;2.58;;
64686;SDS011;51113;53.646;-113.674;2022-09-03T07:04:13;21.13;;;2.50;;
64686;SDS011;51113;53.646;-113.674;2022-09-03T07:06:46;19.98;;;2.45;;
64686;SDS011;51113;53.646;-113.674;2022-09-03T07:09:14;13.80;;;2.40;;
64686;SDS011;51113;53.646;-113.674;2022-09-03T07:11:45;19.17;;;3.05;;
64686;SDS011;51113;53.646;-113.674;2022-09-03T07:14:17;16.25;;;3.17;;
64686;SDS011;51113;53.646;-113.674;2022-09-03T07:16:48;18.25;;;2.65;;
64686;SDS011;51113;53.646;-113.674;2022-09-03T07:19:18;20.40;;;3.17;;
64686;SDS011;51113;53.646;-113.674;2022-09-03T07:21:47;9.98;;;2.47;;
64686;SDS011;51113;53.646;-113.674;2022-09-03T07:24:17;19.00;;;3.25;;
64686;SDS011;51113;53.646;-113.674;2022-09-03T07:26:48;17.10;;;2.47;;
64686;SDS011;51113;53.646;-113.674;2022-09-03T07:29:17;20.45;;;2.92;;
64686;SDS011;51113;53.646;-113.674;2022-09-03T07:31:49;28.35;;;2.53;;
64686;SDS011;51113;53.646;-113.674;2022-09-03T07:34:19;19.70;;;3.05;;
64686;SDS011;51113;53.646;-113.674;2022-09-03T07:36:52;25.25;;;3.88;;
64686;SDS011;51113;53.646;-113.674;2022-09-03T07:39:21;23.60;;;2.85;;
64686;SDS011;51113;53.646;-113.674;2022-09-03T07:41:50;22.83;;;3.08;;
64686;SDS011;51113;53.646;-113.674;2022-09-03T07:44:19;18.60;;;3.13;;
64686;SDS011;51113;53.646;-113.674;2022-09-03T07:46:48;27.73;;;2.92;;
64686;SDS011;51113;53.646;-113.674;2022-09-03T07:49:18;26.40;;;3.28;;
64686;SDS011;51113;53.646;-113.674;2022-09-03T07:51:48;15.38;;;3.67;;
64686;SDS011;51113;53.646;-113.674;2022-09-03T07:54:19;19.33;;;3.17;;
64686;SDS011;51113;53.646;-113.674;2022-09-03T07:56:48;12.73;;;2.97;;
64686;SDS011;51113;53.646;-113.674;2022-09-03T07:59:18;17.58;;;3.33;;
64686;SDS011;51113;53.646;-113.674;2022-09-03T08:01:49;17.33;;;2.97;;
64686;SDS011;51113;53.646;-113.674;2022-09-03T08:04:18;21.08;;;3.67;;
64686;SDS011;51113;53.646;-113.674;2022-09-03T08:06:48;20.08;;;3.35;;
64686;SDS011;51113;53.646;-113.674;2022-09-03T08:09:22;29.20;;;3.42;;
64686;SDS011;51113;53.646;-113.674;2022-09-03T08:11:51;21.55;;;2.80;;
64686;SDS011;51113;53.646;-113.674;2022-09-03T08:14:19;22.80;;;2.67;;
64686;SDS011;51113;53.646;-113.674;2022-09-03T08:16:48;14.88;;;2.95;;
64686;SDS011;51113;53.646;-113.674;2022-09-03T08:19:17;23.17;;;3.00;;
64686;SDS011;51113;53.646;-113.674;2022-09-03T08:21:46;25.70;;;3.28;;
64686;SDS011;51113;53.646;-113.674;2022-09-03T08:24:15;13.75;;;2.67;;
64686;SDS011;51113;53.646;-113.674;2022-09-03T08:26:47;29.40;;;3.58;;
64686;SDS011;51113;53.646;-113.674;2022-09-03T08:29:18;15.07;;;3.67;;
64686;SDS011;51113;53.646;-113.674;2022-09-03T08:31:47;15.32;;;2.75;;
64686;SDS011;51113;53.646;-113.674;2022-09-03T08:34:16;31.10;;;3.83;;
64686;SDS011;51113;53.646;-113.674;2022-09-03T08:36:45;18.73;;;2.67;;
64686;SDS011;51113;53.646;-113.674;2022-09-03T08:39:14;26.42;;;2.95;;
64686;SDS011;51113;53.646;-113.674;2022-09-03T08:47:05;14.50;;;3.00;;
64686;SDS011;51113;53.646;-113.674;2022-09-03T08:52:52;24.05;;;3.17;;
64686;SDS011;51113;53.646;-113.674;2022-09-03T08:55:25;21.55;;;3.20;;
64686;SDS011;51113;53.646;-113.674;2022-09-03T08:58:12;33.38;;;3.42;;
64686;SDS011;51113;53.646;-113.674;2022-09-03T09:03:36;21.17;;;4.45;;
64686;SDS011;51113;53.646;-113.674;2022-09-03T09:22:47;26.08;;;2.88;;
64686;SDS011;51113;53.646;-113.674;2022-09-03T09:25:23;23.98;;;3.45;;
64686;SDS011;51113;53.646;-113.674;2022-09-03T09:28:03;21.30;;;2.88;;
64686;SDS011;51113;53.646;-113.674;2022-09-03T09:30:54;26.00;;;3.50;;
64686;SDS011;51113;53.646;-113.674;2022-09-03T09:33:24;17.92;;;3.30;;
64686;SDS011;51113;53.646;-113.674;2022-09-03T09:35:54;13.00;;;2.90;;
64686;SDS011;51113;53.646;-113.674;2022-09-03T09:38:29;17.70;;;3.20;;
64686;SDS011;51113;53.646;-113.674;2022-09-03T09:43:39;11.75;;;3.10;;
64686;SDS011;51113;53.646;-113.674;2022-09-03T09:46:11;27.13;;;3.15;;
64686;SDS011;51113;53.646;-113.674;2022-09-03T09:48:54;16.52;;;3.85;;
64686;SDS011;51113;53.646;-113.674;2022-09-03T09:51:28;40.33;;;3.78;;
64686;SDS011;51113;53.646;-113.674;2022-09-03T09:54:00;22.88;;;3.20;;
64686;SDS011;51113;53.646;-113.674;2022-09-03T09:56:31;18.83;;;2.90;;
64686;SDS011;51113;53.646;-113.674;2022-09-03T09:59:01;16.50;;;3.58;;
64686;SDS011;51113;53.646;-113.674;2022-09-03T10:01:31;20.88;;;3.33;;
64686;SDS011;51113;53.646;-113.674;2022-09-03T10:04:20;19.42;;;3.10;;
64686;SDS011;51113;53.646;-113.674;2022-09-03T10:07:00;21.42;;;3.38;;
64686;SDS011;51113;53.646;-113.674;2022-09-03T10:09:58;22.38;;;3.20;;
64686;SDS011;51113;53.646;-113.674;2022-09-03T10:12:34;18.80;;;3.35;;
64686;SDS011;51113;53.646;-113.674;2022-09-03T10:23:25;31.65;;;3.30;;
64686;SDS011;51113;53.646;-113.674;2022-09-03T10:26:18;23.95;;;3.72;;
64686;SDS011;51113;53.646;-113.674;2022-09-03T10:29:00;13.35;;;2.95;;
64686;SDS011;51113;53.646;-113.674;2022-09-03T10:32:16;11.07;;;2.75;;
64686;SDS011;51113;53.646;-113.674;2022-09-03T10:42:34;14.00;;;2.92;;
64686;SDS011;51113;53.646;-113.674;2022-09-03T10:56:44;23.42;;;3.65;;
64686;SDS011;51113;53.646;-113.674;2022-09-03T10:59:42;13.50;;;3.55;;
64686;SDS011;51113;53.646;-113.674;2022-09-03T11:05:12;18.77;;;4.15;;
64686;SDS011;51113;53.646;-113.674;2022-09-03T11:07:52;24.17;;;3.33;;
64686;SDS011;51113;53.646;-113.674;2022-09-03T11:10:47;20.23;;;3.65;;
64686;SDS011;51113;53.646;-113.674;2022-09-03T11:13:32;14.52;;;3.40;;
64686;SDS011;51113;53.646;-113.674;2022-09-03T11:16:10;10.70;;;3.13;;
64686;SDS011;51113;53.646;-113.674;2022-09-03T11:19:04;12.60;;;3.13;;
64686;SDS011;51113;53.646;-113.674;2022-09-03T11:21:35;17.00;;;3.10;;
64686;SDS011;51113;53.646;-113.674;2022-09-03T11:24:11;11.65;;;2.80;;
64686;SDS011;51113;53.646;-113.674;2022-09-03T11:26:44;20.73;;;3.20;;
64686;SDS011;51113;53.646;-113.674;2022-09-03T11:29:30;22.23;;;3.72;;
64686;SDS011;51113;53.646;-113.674;2022-09-03T11:32:21;18.83;;;3.45;;
64686;SDS011;51113;53.646;-113.674;2022-09-03T11:34:55;32.22;;;3.90;;
64686;SDS011;51113;53.646;-113.674;2022-09-03T11:37:25;11.60;;;3.22;;
64686;SDS011;51113;53.646;-113.674;2022-09-03T11:40:03;17.45;;;3.83;;
64686;SDS011;51113;53.646;-113.674;2022-09-03T11:42:48;17.43;;;3.40;;
64686;SDS011;51113;53.646;-113.674;2022-09-03T11:47:54;19.20;;;3.25;;
64686;SDS011;51113;53.646;-113.674;2022-09-03T11:50:24;15.98;;;3.50;;
64686;SDS011;51113;53.646;-113.674;2022-09-03T11:58:37;13.90;;;3.35;;
64686;SDS011;51113;53.646;-113.674;2022-09-03T12:01:10;14.90;;;3.20;;
64686;SDS011;51113;53.646;-113.674;2022-09-03T12:03:47;15.88;;;3.42;;
64686;SDS011;51113;53.646;-113.674;2022-09-03T12:09:39;20.40;;;3.97;;
64686;SDS011;51113;53.646;-113.674;2022-09-03T12:18:30;19.17;;;3.80;;
64686;SDS011;51113;53.646;-113.674;2022-09-03T12:21:02;27.48;;;4.47;;
64686;SDS011;51113;53.646;-113.674;2022-09-03T12:26:15;25.48;;;4.38;;
64686;SDS011;51113;53.646;-113.674;2022-09-03T12:28:51;18.45;;;3.50;;
64686;SDS011;51113;53.646;-113.674;2022-09-03T12:31:23;17.13;;;3.22;;
64686;SDS011;51113;53.646;-113.674;2022-09-03T12:34:06;19.38;;;3.92;;
64686;SDS011;51113;53.646;-113.674;2022-09-03T12:36:40;27.15;;;4.40;;
64686;SDS011;51113;53.646;-113.674;2022-09-03T12:39:12;20.73;;;2.97;;
64686;SDS011;51113;53.646;-113.674;2022-09-03T12:42:06;21.77;;;4.20;;
64686;SDS011;51113;53.646;-113.674;2022-09-03T12:44:41;12.02;;;3.40;;
64686;SDS011;51113;53.646;-113.674;2022-09-03T12:50:10;18.60;;;3.60;;
64686;SDS011;51113;53.646;-113.674;2022-09-03T12:52:46;15.68;;;3.60;;
64686;SDS011;51113;53.646;-113.674;2022-09-03T13:01:07;27.25;;;4.43;;
64686;SDS011;51113;53.646;-113.674;2022-09-03T13:03:53;13.90;;;4.00;;
64686;SDS011;51113;53.646;-113.674;2022-09-03T13:06:27;16.33;;;3.67;;
64686;SDS011;51113;53.646;-113.674;2022-09-03T13:09:02;27.30;;;4.97;;
64686;SDS011;51113;53.646;-113.674;2022-09-03T13:11:33;18.93;;;3.70;;
64686;SDS011;51113;53.646;-113.674;2022-09-03T13:14:07;18.02;;;4.03;;
64686;SDS011;51113;53.646;-113.674;2022-09-03T13:30:14;16.42;;;3.83;;
64686;SDS011;51113;53.646;-113.674;2022-09-03T13:33:04;17.83;;;4.07;;
64686;SDS011;51113;53.646;-113.674;2022-09-03T13:36:02;19.90;;;4.25;;
64686;SDS011;51113;53.646;-113.674;2022-09-03T13:38:52;27.73;;;3.95;;
64686;SDS011;51113;53.646;-113.674;2022-09-03T13:41:45;13.45;;;3.78;;
64686;SDS011;51113;53.646;-113.674;2022-09-03T13:44:33;20.52;;;3.75;;
64686;SDS011;51113;53.646;-113.674;2022-09-03T13:47:08;22.02;;;4.07;;
64686;SDS011;51113;53.646;-113.674;2022-09-03T13:50:07;21.58;;;3.97;;
64686;SDS011;51113;53.646;-113.674;2022-09-03T13:52:55;17.05;;;3.50;;
64686;SDS011;51113;53.646;-113.674;2022-09-03T13:55:48;20.30;;;4.03;;
64686;SDS011;51113;53.646;-113.674;2022-09-03T14:03:30;17.27;;;4.18;;
64686;SDS011;51113;53.646;-113.674;2022-09-03T14:08:48;17.80;;;3.45;;
64686;SDS011;51113;53.646;-113.674;2022-09-03T14:11:30;19.58;;;4.28;;
64686;SDS011;51113;53.646;-113.674;2022-09-03T14:17:24;23.95;;;4.05;;
64686;SDS011;51113;53.646;-113.674;2022-09-03T14:20:05;33.92;;;4.75;;
64686;SDS011;51113;53.646;-113.674;2022-09-03T14:25:53;13.15;;;4.03;;
64686;SDS011;51113;53.646;-113.674;2022-09-03T14:28:28;20.65;;;3.65;;
64686;SDS011;51113;53.646;-113.674;2022-09-03T14:36:53;24.33;;;4.28;;
64686;SDS011;51113;53.646;-113.674;2022-09-03T14:39:38;16.88;;;4.25;;
64686;SDS011;51113;53.646;-113.674;2022-09-03T14:42:23;24.08;;;3.88;;
64686;SDS011;51113;53.646;-113.674;2022-09-03T14:53:07;17.02;;;4.78;;
64686;SDS011;51113;53.646;-113.674;2022-09-03T14:55:51;14.65;;;3.67;;
64686;SDS011;51113;53.646;-113.674;2022-09-03T15:01:34;10.98;;;4.10;;
64686;SDS011;51113;53.646;-113.674;2022-09-03T15:20:35;12.88;;;4.43;;
64686;SDS011;51113;53.646;-113.674;2022-09-03T15:36:50;15.35;;;4.53;;
64686;SDS011;51113;53.646;-113.674;2022-09-03T15:39:25;28.55;;;5.22;;
64686;SDS011;51113;53.646;-113.674;2022-09-03T15:42:45;23.85;;;5.18;;
64686;SDS011;51113;53.646;-113.674;2022-09-03T15:44:59;24.83;;;5.18;;
64686;SDS011;51113;53.646;-113.674;2022-09-03T15:47:35;33.50;;;6.18;;
64686;SDS011;51113;53.646;-113.674;2022-09-03T15:53:20;29.05;;;5.30;;
64686;SDS011;51113;53.646;-113.674;2022-09-03T15:56:02;15.85;;;4.40;;
64686;SDS011;51113;53.646;-113.674;2022-09-03T16:10:56;19.10;;;5.35;;
64686;SDS011;51113;53.646;-113.674;2022-09-03T16:13:30;21.27;;;5.15;;
64686;SDS011;51113;53.646;-113.674;2022-09-03T16:16:13;18.65;;;5.57;;
64686;SDS011;51113;53.646;-113.674;2022-09-03T16:19:08;19.75;;;5.50;;
64686;SDS011;51113;53.646;-113.674;2022-09-03T16:24:25;15.68;;;5.65;;
64686;SDS011;51113;53.646;-113.674;2022-09-03T16:27:22;14.50;;;5.53;;
64686;SDS011;51113;53.646;-113.674;2022-09-03T16:30:42;19.85;;;5.63;;
64686;SDS011;51113;53.646;-113.674;2022-09-03T16:38:26;20.48;;;5.63;;
64686;SDS011;51113;53.646;-113.674;2022-09-03T16:41:32;16.25;;;5.93;;
64686;SDS011;51113;53.646;-113.674;2022-09-03T16:44:06;16.88;;;5.80;;
64686;SDS011;51113;53.646;-113.674;2022-09-03T16:46:59;15.80;;;5.70;;
64686;SDS011;51113;53.646;-113.674;2022-09-03T16:57:50;16.17;;;6.88;;
64686;SDS011;51113;53.646;-113.674;2022-09-03T17:00:56;11.77;;;5.18;;
64686;SDS011;51113;53.646;-113.674;2022-09-03T17:06:28;18.90;;;5.50;;
64686;SDS011;51113;53.646;-113.674;2022-09-03T17:09:06;14.00;;;5.53;;
64686;SDS011;51113;53.646;-113.674;2022-09-03T17:31:08;23.52;;;5.93;;
64686;SDS011;51113;53.646;-113.674;2022-09-03T17:36:25;13.07;;;6.05;;
64686;SDS011;51113;53.646;-113.674;2022-09-03T17:44:46;21.60;;;6.45;;
64686;SDS011;51113;53.646;-113.674;2022-09-03T17:50:18;22.15;;;5.93;;
64686;SDS011;51113;53.646;-113.674;2022-09-03T17:52:56;19.65;;;6.35;;
64686;SDS011;51113;53.646;-113.674;2022-09-03T17:55:34;17.08;;;5.70;;
64686;SDS011;51113;53.646;-113.674;2022-09-03T18:03:40;18.98;;;5.78;;
64686;SDS011;51113;53.646;-113.674;2022-09-03T18:11:47;19.77;;;5.78;;
64686;SDS011;51113;53.646;-113.674;2022-09-03T18:14:30;18.13;;;5.78;;
64686;SDS011;51113;53.646;-113.674;2022-09-03T18:17:21;15.02;;;5.45;;
64686;SDS011;51113;53.646;-113.674;2022-09-03T18:20:11;26.73;;;5.93;;
64686;SDS011;51113;53.646;-113.674;2022-09-03T18:23:01;14.63;;;5.35;;
64686;SDS011;51113;53.646;-113.674;2022-09-03T18:25:49;9.57;;;5.40;;
64686;SDS011;51113;53.646;-113.674;2022-09-03T18:29:02;14.60;;;6.05;;
64686;SDS011;51113;53.646;-113.674;2022-09-03T18:31:55;13.43;;;5.72;;
64686;SDS011;51113;53.646;-113.674;2022-09-03T18:34:42;21.30;;;5.80;;
64686;SDS011;51113;53.646;-113.674;2022-09-03T18:37:32;17.27;;;5.65;;
64686;SDS011;51113;53.646;-113.674;2022-09-03T18:40:27;12.43;;;6.47;;
64686;SDS011;51113;53.646;-113.674;2022-09-03T18:46:26;13.15;;;6.97;;
64686;SDS011;51113;53.646;-113.674;2022-09-03T18:58:57;13.35;;;7.03;;
64686;SDS011;51113;53.646;-113.674;2022-09-03T19:02:12;16.05;;;7.20;;
64686;SDS011;51113;53.646;-113.674;2022-09-03T19:08:24;12.07;;;7.88;;
64686;SDS011;51113;53.646;-113.674;2022-09-03T19:14:37;14.30;;;7.50;;
64686;SDS011;51113;53.646;-113.674;2022-09-03T19:20:37;12.90;;;6.95;;
64686;SDS011;51113;53.646;-113.674;2022-09-03T19:23:41;17.13;;;7.65;;
64686;SDS011;51113;53.646;-113.674;2022-09-03T19:26:43;21.38;;;7.47;;
64686;SDS011;51113;53.646;-113.674;2022-09-03T19:36:00;15.13;;;7.68;;
64686;SDS011;51113;53.646;-113.674;2022-09-03T19:42:49;18.17;;;7.40;;
64686;SDS011;51113;53.646;-113.674;2022-09-03T19:48:46;20.55;;;7.75;;
64686;SDS011;51113;53.646;-113.674;2022-09-03T19:55:11;11.90;;;7.88;;
64686;SDS011;51113;53.646;-113.674;2022-09-03T19:58:04;19.80;;;8.32;;
64686;SDS011;51113;53.646;-113.674;2022-09-03T20:01:09;22.95;;;7.45;;
64686;SDS011;51113;53.646;-113.674;2022-09-03T20:04:02;16.77;;;8.48;;
64686;SDS011;51113;53.646;-113.674;2022-09-03T20:07:00;14.20;;;8.25;;
64686;SDS011;51113;53.646;-113.674;2022-09-03T20:09:51;16.92;;;8.85;;
64686;SDS011;51113;53.646;-113.674;2022-09-03T20:12:43;18.60;;;8.10;;
64686;SDS011;51113;53.646;-113.674;2022-09-03T20:15:16;19.77;;;8.60;;
64686;SDS011;51113;53.646;-113.674;2022-09-03T20:20:47;38.47;;;8.65;;
64686;SDS011;51113;53.646;-113.674;2022-09-03T20:35:07;13.23;;;7.55;;
64686;SDS011;51113;53.646;-113.674;2022-09-03T20:37:30;21.90;;;9.13;;
64686;SDS011;51113;53.646;-113.674;2022-09-03T20:40:28;25.42;;;7.93;;
64686;SDS011;51113;53.646;-113.674;2022-09-03T20:48:29;21.45;;;8.23;;
64686;SDS011;51113;53.646;-113.674;2022-09-03T20:51:24;11.07;;;7.88;;
64686;SDS011;51113;53.646;-113.674;2022-09-03T20:59:54;13.90;;;8.63;;
64686;SDS011;51113;53.646;-113.674;2022-09-03T21:11:58;17.20;;;8.93;;